createdAt,value
2022-10-18T00:00:02.157Z,48.230864710624296
2022-10-18T00:15:01.767Z,48.85707583855092
2022-10-18T00:30:02.442Z,47.39271805189736
2022-10-18T00:45:02.105Z,46.256081665003585
2022-10-18T01:00:01.766Z,46.066180521265835
2022-10-18T01:15:01.893Z,45.998017724927344
2022-10-18T01:30:01.675Z,46.3132041867907
2022-10-18T01:45:02.334Z,45.82667326214939
2022-10-18T02:00:01.953Z,46.378283142433304
2022-10-18T02:15:01.601Z,46.21958580944248
2022-10-18T02:30:02.260Z,47.41461391882538
2022-10-18T02:45:01.970Z,48.20936965602826
2022-10-18T03:00:01.625Z,47.27245777298189
2022-10-18T03:15:02.295Z,48.35456732241487
2022-10-18T03:30:01.998Z,47.703671094374776
2022-10-18T03:45:01.660Z,46.402228087090684
2022-10-18T04:00:02.311Z,46.59002548739431
2022-10-18T04:15:01.983Z,46.54229181153083
2022-10-18T04:30:01.666Z,46.46195315653908
2022-10-18T04:45:02.280Z,46.54022017387404
2022-10-18T05:00:01.998Z,46.27034554920299
2022-10-18T05:15:01.669Z,46.26607967348423
2022-10-18T05:30:05.357Z,47.2680951714533
2022-10-18T05:45:01.647Z,46.409320101883736
2022-10-18T06:00:02.222Z,47.09741072768603
2022-10-18T06:15:01.840Z,47.005905564960884
2022-10-18T06:30:01.550Z,46.55106958581327
2022-10-18T06:45:02.190Z,46.23823513014416
2022-10-18T07:00:01.873Z,46.89704042671568
2022-10-18T07:15:05.557Z,47.279540710777525
2022-10-18T07:30:02.007Z,47.3817015278332
2022-10-18T07:45:01.730Z,47.16963969875558
2022-10-18T08:00:01.364Z,46.84240493599314
2022-10-18T08:15:02.055Z,45.810210605888365
2022-10-18T08:30:01.814Z,45.90321211918578
2022-10-18T08:45:08.287Z,45.96112933751975
2022-10-18T09:00:01.532Z,45.85706606015897
2022-10-18T09:15:02.213Z,44.74725454490642
2022-10-18T09:30:01.913Z,42.153194697759766
2022-10-18T09:45:01.587Z,41.700602554780644
2022-10-18T10:00:02.217Z,35.596180365591806
2022-10-18T10:15:01.894Z,34.077482894570686
2022-10-18T10:30:06.556Z,32.94606289602721
2022-10-18T10:45:01.849Z,30.544616098365104
2022-10-18T11:00:01.504Z,31.530022556114325
2022-10-18T11:15:02.108Z,30.478080199492354
2022-10-18T11:30:01.848Z,29.186519897096765
2022-10-18T11:45:01.503Z,28.31684560473208
2022-10-18T12:00:02.151Z,26.8709236093244
2022-10-18T12:15:01.836Z,26.75373577048171
2022-10-18T12:30:01.539Z,24.978891970731404
2022-10-18T12:45:01.243Z,24.340545971935608
2022-10-18T13:00:01.881Z,24.117538420023106
2022-10-18T13:15:12.486Z,23.805302742471078
2022-10-18T13:30:01.763Z,23.959556283054532
2022-10-18T13:45:01.417Z,24.163304907155123
2022-10-18T14:00:02.093Z,24.412576953510012
2022-10-18T14:15:01.772Z,24.687572595400148
2022-10-18T14:30:01.474Z,25.070461819250003
2022-10-18T14:45:01.228Z,26.53068687746283
2022-10-18T15:00:01.992Z,27.797729176184877
2022-10-18T15:15:01.685Z,29.050812282738462
2022-10-18T15:30:01.433Z,29.88185655585379
2022-10-18T15:45:01.279Z,31.16635366175589
2022-10-18T16:00:02.102Z,33.61016891926729
2022-10-18T16:15:01.814Z,36.19642599733117
2022-10-18T16:30:01.472Z,40.590643384366494
2022-10-18T16:45:02.110Z,42.345723981846305
2022-10-18T17:00:01.784Z,43.41974969152356
2022-10-18T17:15:01.427Z,44.250439367157995
2022-10-18T17:30:02.096Z,44.583356313047496
2022-10-18T17:45:01.945Z,44.60716273475063
2022-10-18T18:00:01.831Z,45.09820728237243
2022-10-18T18:15:02.455Z,44.99258329248752
2022-10-18T18:30:02.165Z,44.56436449266409
2022-10-18T18:45:01.847Z,44.71090275043568
2022-10-18T19:00:02.429Z,44.39024206799232
2022-10-18T19:15:02.064Z,44.745375946990606
2022-10-18T19:30:01.770Z,45.348672595419565
2022-10-18T19:45:02.413Z,45.26393988251599
2022-10-18T20:00:03.542Z,45.8358475026538
2022-10-18T20:15:02.222Z,45.412482902622244
2022-10-18T20:30:01.909Z,45.38056371836339
2022-10-18T20:45:01.558Z,45.48516580676133
2022-10-18T21:00:02.161Z,45.34602130882573
2022-10-18T21:15:01.804Z,45.42812827217526
2022-10-18T21:30:01.575Z,45.621312906081975
2022-10-18T21:45:02.283Z,45.09049502194273
2022-10-18T22:00:01.901Z,44.65023628096168
2022-10-18T22:15:01.564Z,44.94168052034717
2022-10-18T22:30:02.218Z,44.84903456083587
2022-10-18T22:45:01.843Z,45.14889269124279
2022-10-18T23:00:01.462Z,45.05023543672364
2022-10-18T23:15:02.097Z,45.83904995024547
2022-10-18T23:30:01.796Z,45.25223985520053
2022-10-18T23:45:01.438Z,45.37171947081901
